Terminal Aerodrome Forecast
Issued by NWS

Home | Current Version | Previous Version | Text Only | Print | Product List | Glossary On
Versions: 1 2 3 4 5 6 7 8 9 10 11 12 13 14 15
000
FTUS42 KJAX 222300
TAFVQQ
TAF
KVQQ 222340Z 2300/2324 09010KT P6SM VCSH SCT025 OVC035
      TEMPO 2300/2302 5SM -SHRA BKN025
     FM230600 13010KT P6SM VCTS SCT012 OVC020CB WS020/15040KT
      TEMPO 2308/2312 3SM RA BR SCT008 OVC015
     FM231600 18014G22KT 6SM -SHRA SCT025 OVC035=

USA.gov is the U.S. government's official web portal to all federal, state and local government web resources and services.